createdAt,value
2023-05-14T00:00:35.826Z,95416.00
2023-05-14T00:03:23.599Z,95411.59
2023-05-14T00:05:51.066Z,95408.81
2023-05-14T00:08:18.573Z,95409.41
2023-05-14T00:10:45.892Z,95404.63
2023-05-14T00:13:13.327Z,95411.59
2023-05-14T00:15:40.495Z,95411.59
2023-05-14T00:18:08.292Z,95407.19
2023-05-14T00:20:35.512Z,95403.84
2023-05-14T00:23:02.949Z,95405.81
2023-05-14T00:25:30.229Z,95398.63
2023-05-14T00:27:57.659Z,95397.25
2023-05-14T00:30:25.105Z,95397.00
2023-05-14T00:32:54.220Z,95412.88
2023-05-14T00:35:22.378Z,95407.84
2023-05-14T00:37:49.925Z,95413.38
2023-05-14T00:40:17.140Z,95415.63
2023-05-14T00:42:45.640Z,95412.72
2023-05-14T00:45:12.881Z,95403.44
2023-05-14T00:47:41.116Z,95416.03
2023-05-14T00:50:10.156Z,95416.50
2023-05-14T00:52:38.285Z,95411.63
2023-05-14T00:55:07.177Z,95404.78
2023-05-14T00:57:36.306Z,95412.63
2023-05-14T01:00:04.971Z,95426.88
2023-05-14T01:02:32.414Z,95429.25
2023-05-14T01:04:59.782Z,95427.84
2023-05-14T01:07:47.149Z,95430.22
2023-05-14T01:10:23.960Z,95430.22
2023-05-14T01:13:10.116Z,95427.94
2023-05-14T01:15:38.558Z,95425.38
2023-05-14T01:18:09.654Z,95425.66
2023-05-14T01:20:37.817Z,95424.50
2023-05-14T01:23:05.357Z,95432.16
2023-05-14T01:25:32.598Z,95426.53
2023-05-14T01:28:18.144Z,95422.47
2023-05-14T01:30:52.113Z,95425.13
2023-05-14T01:33:21.976Z,95431.41
2023-05-14T01:35:49.921Z,95432.66
2023-05-14T01:38:20.332Z,95426.91
2023-05-14T01:40:49.132Z,95416.13
2023-05-14T01:43:17.469Z,95410.50
2023-05-14T01:45:44.994Z,95412.28
2023-05-14T01:48:13.089Z,95399.47
2023-05-14T01:50:41.463Z,95408.75
2023-05-14T01:53:08.871Z,95403.00
2023-05-14T01:55:36.120Z,95387.16
2023-05-14T01:58:04.768Z,95400.06
2023-05-14T02:00:33.249Z,95392.97
2023-05-14T02:03:00.769Z,95383.66
2023-05-14T02:05:28.013Z,95376.06
2023-05-14T02:07:55.440Z,95365.88
2023-05-14T02:10:23.113Z,95370.16
2023-05-14T02:12:50.852Z,95369.47
2023-05-14T02:15:18.121Z,95359.06
2023-05-14T02:17:45.806Z,95374.78
2023-05-14T02:20:13.429Z,95354.97
2023-05-14T02:22:45.746Z,95355.25
2023-05-14T02:25:13.021Z,95354.44
2023-05-14T02:27:40.598Z,95371.13
2023-05-14T02:30:09.575Z,95373.69
2023-05-14T02:32:37.697Z,95370.38
2023-05-14T02:35:06.255Z,95371.75
2023-05-14T02:37:34.995Z,95377.84
2023-05-14T02:40:02.203Z,95377.13
2023-05-14T02:42:29.725Z,95368.63
2023-05-14T02:44:56.923Z,95378.47
2023-05-14T02:47:24.482Z,95375.22
2023-05-14T02:49:51.649Z,95382.09
2023-05-14T02:52:21.899Z,95378.44
2023-05-14T02:54:49.023Z,95397.63
2023-05-14T02:57:16.448Z,95397.66
2023-05-14T02:59:43.632Z,95399.03
2023-05-14T03:02:11.431Z,95395.22
2023-05-14T03:04:39.347Z,95401.66
2023-05-14T03:07:06.773Z,95402.59
2023-05-14T03:09:37.402Z,95380.31
2023-05-14T03:12:08.045Z,95384.53
2023-05-14T03:14:35.215Z,95384.31
2023-05-14T03:17:04.193Z,95387.50
2023-05-14T03:19:31.379Z,95388.31
2023-05-14T03:21:58.860Z,95397.16
2023-05-14T03:24:26.010Z,95393.75
2023-05-14T03:26:53.623Z,95391.19
2023-05-14T03:29:20.719Z,95383.66
2023-05-14T03:31:48.289Z,95368.63
2023-05-14T03:34:15.520Z,95383.94
2023-05-14T03:36:43.895Z,95355.59
2023-05-14T03:39:11.033Z,95367.97
2023-05-14T03:41:39.539Z,95367.00
2023-05-14T03:44:06.710Z,95372.13
2023-05-14T03:46:34.232Z,95375.59
2023-05-14T03:49:01.521Z,95371.72
2023-05-14T03:51:29.277Z,95358.78
2023-05-14T03:53:58.394Z,95361.97
2023-05-14T03:56:26.318Z,95364.41
2023-05-14T03:58:53.499Z,95354.09
2023-05-14T04:01:20.999Z,95346.91
2023-05-14T04:03:48.240Z,95359.13
2023-05-14T04:06:16.382Z,95354.91
2023-05-14T04:08:43.896Z,95337.34
2023-05-14T04:11:12.242Z,95346.78
2023-05-14T04:13:39.392Z,95351.72
2023-05-14T04:16:07.243Z,95347.69
2023-05-14T04:18:35.990Z,95363.13
2023-05-14T04:21:03.558Z,95348.31
2023-05-14T04:23:31.997Z,95361.53
2023-05-14T04:25:59.696Z,95360.75
2023-05-14T04:28:27.725Z,95362.84
2023-05-14T04:30:55.582Z,95356.56
2023-05-14T04:33:22.805Z,95342.09
2023-05-14T04:35:50.221Z,95347.66
2023-05-14T04:38:17.445Z,95344.28
2023-05-14T04:40:44.979Z,95336.06
2023-05-14T04:43:13.031Z,95337.88
2023-05-14T04:45:41.232Z,95343.56
2023-05-14T04:48:09.465Z,95349.78
2023-05-14T04:50:36.993Z,95340.34
2023-05-14T04:53:04.153Z,95356.97
2023-05-14T04:55:31.678Z,95341.59
2023-05-14T04:57:58.906Z,95341.59
2023-05-14T05:00:26.597Z,95334.50
2023-05-14T05:02:53.908Z,95334.94
2023-05-14T05:05:21.557Z,95319.59
2023-05-14T05:07:49.776Z,95321.94
2023-05-14T05:10:17.253Z,95315.72
2023-05-14T05:12:44.484Z,95330.25
2023-05-14T05:15:11.945Z,95333.13
2023-05-14T05:17:39.202Z,95324.81
2023-05-14T05:20:09.797Z,95331.50
2023-05-14T05:22:37.778Z,95331.00
2023-05-14T05:25:06.580Z,95317.75
2023-05-14T05:27:33.897Z,95331.72
2023-05-14T05:30:04.790Z,95317.81
2023-05-14T05:32:32.180Z,95318.06
2023-05-14T05:34:59.778Z,95305.38
2023-05-14T05:37:26.949Z,95300.19
2023-05-14T05:39:54.449Z,95305.41
2023-05-14T05:42:22.683Z,95292.91
2023-05-14T05:44:50.252Z,95289.22
2023-05-14T05:47:17.473Z,95291.47
2023-05-14T05:49:44.957Z,95274.66
2023-05-14T05:52:12.182Z,95288.53
2023-05-14T05:54:40.109Z,95286.97
2023-05-14T05:57:07.336Z,95269.56
2023-05-14T05:59:34.832Z,95261.25
2023-05-14T06:02:02.169Z,95273.66
2023-05-14T06:04:29.637Z,95281.69
2023-05-14T06:06:56.832Z,95284.91
2023-05-14T06:09:24.297Z,95278.50
2023-05-14T06:11:51.473Z,95282.25
2023-05-14T06:14:18.951Z,95277.34
2023-05-14T06:16:46.667Z,95261.94
2023-05-14T06:19:14.408Z,95264.03
2023-05-14T06:21:41.675Z,95265.28
2023-05-14T06:24:09.426Z,95275.69
2023-05-14T06:26:36.725Z,95265.13
2023-05-14T06:29:04.173Z,95266.44
2023-05-14T06:31:31.439Z,95254.75
2023-05-14T06:33:58.902Z,95254.16
2023-05-14T06:36:26.103Z,95255.72
2023-05-14T06:38:53.587Z,95258.03
2023-05-14T06:41:21.426Z,95269.75
2023-05-14T06:43:49.995Z,95282.16
2023-05-14T06:46:17.362Z,95281.81
2023-05-14T06:48:44.876Z,95278.47
2023-05-14T06:51:13.417Z,95279.38
2023-05-14T06:53:41.408Z,95260.84
2023-05-14T06:56:08.631Z,95267.19
2023-05-14T06:58:36.089Z,95254.50
2023-05-14T07:01:03.295Z,95260.59
2023-05-14T07:03:30.938Z,95262.00
2023-05-14T07:05:59.111Z,95256.19
2023-05-14T07:08:26.355Z,95252.91
2023-05-14T07:10:53.814Z,95244.22
2023-05-14T07:13:21.033Z,95242.66
2023-05-14T07:15:48.600Z,95242.69
2023-05-14T07:18:15.912Z,95239.59
2023-05-14T07:20:43.514Z,95228.00
2023-05-14T07:23:10.711Z,95225.75
2023-05-14T07:25:38.500Z,95221.44
2023-05-14T07:28:05.650Z,95205.25
2023-05-14T07:30:34.056Z,95221.97
2023-05-14T07:33:01.378Z,95207.16
2023-05-14T07:35:29.043Z,95210.97
2023-05-14T07:37:56.236Z,95214.81
2023-05-14T07:40:25.632Z,95206.88
2023-05-14T07:42:53.080Z,95214.69
2023-05-14T07:45:21.609Z,95201.28
2023-05-14T07:47:52.220Z,95215.38
2023-05-14T07:50:20.084Z,95219.13
2023-05-14T07:52:47.269Z,95205.22
2023-05-14T07:55:14.810Z,95185.88
2023-05-14T07:57:42.017Z,95175.00
2023-05-14T08:00:09.952Z,95193.44
2023-05-14T08:02:40.151Z,95195.03
2023-05-14T08:05:08.253Z,95196.28
2023-05-14T08:07:35.877Z,95177.44
2023-05-14T08:10:03.747Z,95180.81
2023-05-14T08:12:31.216Z,95179.19
2023-05-14T08:14:58.814Z,95186.22
2023-05-14T08:17:26.375Z,95170.19
2023-05-14T08:19:55.356Z,95171.81
2023-05-14T08:22:22.659Z,95179.78
2023-05-14T08:24:50.349Z,95176.00
2023-05-14T08:27:17.528Z,95171.97
2023-05-14T08:29:45.118Z,95172.59
2023-05-14T08:32:22.885Z,95173.38
2023-05-14T08:34:52.099Z,95169.31
2023-05-14T08:37:19.511Z,95161.72
2023-05-14T08:39:47.421Z,95154.09
2023-05-14T08:42:18.836Z,95149.91
2023-05-14T08:44:53.388Z,95146.03
2023-05-14T08:47:24.921Z,95144.59
2023-05-14T08:50:08.482Z,95145.91
2023-05-14T08:52:37.860Z,95142.41
2023-05-14T08:55:06.728Z,95146.44
2023-05-14T08:57:37.222Z,95131.97
2023-05-14T09:00:12.529Z,95141.41
2023-05-14T09:02:47.041Z,95140.09
2023-05-14T09:05:19.601Z,95130.19
2023-05-14T09:07:47.915Z,95126.41
2023-05-14T09:10:18.273Z,95118.22
2023-05-14T09:12:48.481Z,95128.44
2023-05-14T09:15:16.178Z,95105.25
2023-05-14T09:17:49.091Z,95124.34
2023-05-14T09:20:19.785Z,95116.44
2023-05-14T09:22:49.973Z,95125.25
2023-05-14T09:25:19.626Z,95119.84
2023-05-14T09:27:50.482Z,95118.81
2023-05-14T09:30:18.227Z,95111.19
2023-05-14T09:32:46.245Z,95100.13
2023-05-14T09:35:17.992Z,95105.13
2023-05-14T09:37:47.621Z,95094.38
2023-05-14T09:40:15.983Z,95109.16
2023-05-14T09:42:43.442Z,95091.19
2023-05-14T09:45:11.916Z,95104.41
2023-05-14T09:47:40.062Z,95094.84
2023-05-14T09:50:08.571Z,95084.81
2023-05-14T09:52:36.037Z,95090.63
2023-05-14T09:55:04.298Z,95089.13
2023-05-14T09:57:32.441Z,95066.78
2023-05-14T09:59:59.936Z,95069.91
2023-05-14T10:02:37.005Z,95077.22
2023-05-14T10:05:06.857Z,95063.88
2023-05-14T10:07:40.246Z,95049.50
2023-05-14T10:10:11.845Z,95043.06
2023-05-14T10:12:41.109Z,95036.66
2023-05-14T10:15:19.910Z,95030.00
2023-05-14T10:17:57.342Z,95018.94
2023-05-14T10:20:25.485Z,95028.63
2023-05-14T10:22:52.969Z,95018.56
2023-05-14T10:25:21.505Z,95021.09
2023-05-14T10:27:51.943Z,95026.31
2023-05-14T10:30:23.463Z,95031.09
2023-05-14T10:33:07.349Z,95026.09
2023-05-14T10:35:54.150Z,95037.41
2023-05-14T10:38:33.474Z,95023.63
2023-05-14T10:41:06.134Z,95020.34
2023-05-14T10:43:39.394Z,95006.16
2023-05-14T10:46:10.146Z,95013.31
2023-05-14T10:48:39.444Z,95007.66
2023-05-14T10:51:11.150Z,94996.31
2023-05-14T10:53:41.502Z,94984.63
2023-05-14T10:56:11.343Z,94995.28
2023-05-14T10:58:46.039Z,94999.16
2023-05-14T11:01:14.128Z,94989.69
2023-05-14T11:03:46.424Z,94984.13
2023-05-14T11:06:16.094Z,94988.81
2023-05-14T11:08:44.759Z,94997.59
2023-05-14T11:11:12.682Z,95001.22
2023-05-14T11:13:41.742Z,94998.84
2023-05-14T11:16:22.923Z,95004.81
2023-05-14T11:19:03.494Z,94976.19
2023-05-14T11:21:33.176Z,94988.72
2023-05-14T11:24:01.218Z,94988.47
2023-05-14T11:26:29.164Z,94979.19
2023-05-14T11:28:56.674Z,94991.03
2023-05-14T11:31:25.647Z,94984.69
2023-05-14T11:33:53.781Z,94975.66
2023-05-14T11:36:22.280Z,94968.09
2023-05-14T11:38:51.548Z,94969.03
2023-05-14T11:41:21.724Z,94967.78
2023-05-14T11:43:49.259Z,94955.09
2023-05-14T11:46:18.942Z,94946.44
2023-05-14T11:48:46.678Z,94953.50
2023-05-14T11:51:14.458Z,94946.00
2023-05-14T11:53:42.341Z,94942.47
2023-05-14T11:56:10.389Z,94942.81
2023-05-14T11:58:37.822Z,94932.19
2023-05-14T12:01:05.888Z,94945.09
2023-05-14T12:03:34.116Z,94930.38
2023-05-14T12:06:06.834Z,94925.13
2023-05-14T12:08:34.350Z,94920.06
2023-05-14T12:11:02.302Z,94913.31
2023-05-14T12:13:31.486Z,94921.28
2023-05-14T12:16:03.457Z,94918.19
2023-05-14T12:18:33.209Z,94924.19
2023-05-14T12:21:07.380Z,94907.50
2023-05-14T12:23:34.983Z,94905.97
2023-05-14T12:26:07.794Z,94899.72
2023-05-14T12:28:43.608Z,94900.84
2023-05-14T12:31:12.373Z,94898.03
2023-05-14T12:33:39.680Z,94897.75
2023-05-14T12:38:37.873Z,94919.78
2023-05-14T12:41:05.486Z,94899.00
2023-05-14T12:46:27.738Z,94904.47
2023-05-14T12:48:55.874Z,94898.31
2023-05-14T12:51:23.596Z,94895.16
2023-05-14T12:53:54.156Z,94900.84
2023-05-14T12:56:22.217Z,94882.66
2023-05-14T12:58:49.671Z,94895.38
2023-05-14T13:01:16.881Z,94881.91
2023-05-14T13:03:44.371Z,94889.00
2023-05-14T13:06:11.717Z,94895.56
2023-05-14T13:08:40.502Z,94893.31
2023-05-14T13:11:10.045Z,94896.84
2023-05-14T13:13:40.150Z,94862.00
2023-05-14T13:16:09.037Z,94882.78
2023-05-14T13:18:36.646Z,94888.41
2023-05-14T13:21:06.531Z,94885.66
2023-05-14T13:23:35.050Z,94882.06
2023-05-14T13:26:02.979Z,94871.94
2023-05-14T13:28:30.682Z,94881.41
2023-05-14T13:31:09.533Z,94887.03
2023-05-14T13:33:38.800Z,94878.50
2023-05-14T13:36:06.583Z,94879.03
2023-05-14T13:38:35.893Z,94834.28
2023-05-14T13:41:03.194Z,94852.06
2023-05-14T13:43:32.260Z,94842.28
2023-05-14T13:45:59.979Z,94853.59
2023-05-14T13:48:28.783Z,94839.81
2023-05-14T13:50:56.152Z,94848.56
2023-05-14T13:53:25.252Z,94846.16
2023-05-14T13:55:58.336Z,94845.69
2023-05-14T13:58:27.510Z,94835.31
2023-05-14T14:00:54.799Z,94845.63
2023-05-14T14:03:22.534Z,94829.28
2023-05-14T14:05:50.332Z,94825.81
2023-05-14T14:08:24.011Z,94835.56
2023-05-14T14:10:53.218Z,94840.53
2023-05-14T14:13:21.597Z,94821.38
2023-05-14T14:15:49.421Z,94818.84
2023-05-14T14:18:17.076Z,94832.63
2023-05-14T14:20:44.518Z,94822.75
2023-05-14T14:23:12.189Z,94828.03
2023-05-14T14:25:39.769Z,94819.88
2023-05-14T14:28:07.394Z,94803.13
2023-05-14T14:30:35.732Z,94807.31
2023-05-14T14:33:03.516Z,94816.44
2023-05-14T14:35:32.984Z,94811.97
2023-05-14T14:38:00.647Z,94815.53
2023-05-14T14:40:28.067Z,94817.94
2023-05-14T14:42:55.696Z,94809.19
2023-05-14T14:45:23.475Z,94810.66
2023-05-14T14:47:51.551Z,94813.03
2023-05-14T14:50:18.911Z,94798.34
2023-05-14T14:52:48.225Z,94794.22
2023-05-14T14:55:15.679Z,94793.09
2023-05-14T14:57:43.464Z,94789.09
2023-05-14T15:00:12.563Z,94778.56
2023-05-14T15:02:42.877Z,94780.34
2023-05-14T15:05:10.395Z,94779.69
2023-05-14T15:07:38.106Z,94765.16
2023-05-14T15:10:06.297Z,94774.09
2023-05-14T15:12:33.949Z,94773.16
2023-05-14T15:15:01.377Z,94776.03
2023-05-14T15:17:29.039Z,94778.28
2023-05-14T15:19:56.395Z,94764.25
2023-05-14T15:22:24.176Z,94777.31
2023-05-14T15:24:52.515Z,94762.16
2023-05-14T15:27:20.265Z,94770.28
2023-05-14T15:29:47.682Z,94778.44
2023-05-14T15:32:17.351Z,94765.38
2023-05-14T15:34:44.905Z,94765.84
2023-05-14T15:37:12.639Z,94757.88
2023-05-14T15:39:40.115Z,94753.56
2023-05-14T15:42:08.750Z,94756.91
2023-05-14T15:44:38.847Z,94745.91
2023-05-14T15:47:06.850Z,94749.75
2023-05-14T15:49:34.171Z,94745.75
2023-05-14T15:52:03.009Z,94746.06
2023-05-14T15:54:30.473Z,94740.50
2023-05-14T15:56:59.066Z,94728.38
2023-05-14T15:59:26.409Z,94719.59
2023-05-14T16:01:54.240Z,94731.88
2023-05-14T16:04:21.529Z,94727.41
2023-05-14T16:06:51.370Z,94716.41
2023-05-14T16:09:18.610Z,94720.69
2023-05-14T16:11:46.220Z,94725.16
2023-05-14T16:14:13.420Z,94717.19
2023-05-14T16:16:41.292Z,94704.59
2023-05-14T16:19:08.568Z,94701.91
2023-05-14T16:21:36.304Z,94712.88
2023-05-14T16:24:03.796Z,94701.56
2023-05-14T16:26:31.452Z,94708.09
2023-05-14T16:28:58.687Z,94705.88
2023-05-14T16:31:26.258Z,94708.69
2023-05-14T16:33:53.435Z,94712.84
2023-05-14T16:36:21.054Z,94695.63
2023-05-14T16:39:06.238Z,94706.78
2023-05-14T16:41:36.227Z,94715.56
2023-05-14T16:44:03.736Z,94702.63
2023-05-14T16:46:31.464Z,94705.03
2023-05-14T16:48:58.825Z,94697.53
2023-05-14T16:51:26.455Z,94717.00
2023-05-14T16:53:56.716Z,94710.59
2023-05-14T16:56:24.508Z,94694.28
2023-05-14T16:58:51.775Z,94719.34
2023-05-14T17:01:19.391Z,94737.94
2023-05-14T17:03:46.975Z,94749.50
2023-05-14T17:06:15.645Z,94728.56
2023-05-14T17:08:42.898Z,94721.50
2023-05-14T17:11:10.627Z,94716.91
2023-05-14T17:13:57.851Z,94732.81
2023-05-14T17:16:25.483Z,94719.84
2023-05-14T17:18:55.198Z,94704.34
2023-05-14T17:21:22.830Z,94703.41
2023-05-14T17:23:51.053Z,94698.50
2023-05-14T17:26:22.623Z,94704.28
2023-05-14T17:28:50.250Z,94698.84
2023-05-14T17:31:18.104Z,94695.44
2023-05-14T17:33:46.904Z,94697.97
2023-05-14T17:36:14.534Z,94699.69
2023-05-14T17:38:41.835Z,94678.00
2023-05-14T17:41:09.995Z,94692.38
2023-05-14T17:43:37.333Z,94686.78
2023-05-14T17:46:05.466Z,94680.19
2023-05-14T17:48:37.222Z,94690.84
2023-05-14T17:51:06.213Z,94701.94
2023-05-14T17:53:33.582Z,94701.66
2023-05-14T17:56:02.167Z,94701.47
2023-05-14T17:58:30.241Z,94703.66
2023-05-14T18:00:58.041Z,94702.97
2023-05-14T18:03:27.798Z,94701.69
2023-05-14T18:05:55.523Z,94707.72
2023-05-14T18:08:23.763Z,94710.03
2023-05-14T18:10:52.513Z,94706.31
2023-05-14T18:13:19.678Z,94717.34
2023-05-14T18:16:29.459Z,94709.38
2023-05-14T18:18:57.248Z,94703.66
2023-05-14T18:21:24.840Z,94704.56
2023-05-14T18:23:52.977Z,94694.38
2023-05-14T18:26:22.216Z,94693.69
2023-05-14T18:28:49.598Z,94702.88
2023-05-14T18:31:17.287Z,94707.38
2023-05-14T18:33:44.643Z,94702.19
2023-05-14T18:36:12.299Z,94713.47
2023-05-14T18:38:41.068Z,94706.19
2023-05-14T18:41:08.733Z,94712.09
2023-05-14T18:43:36.111Z,94712.38
2023-05-14T18:46:04.008Z,94715.97
2023-05-14T18:48:32.249Z,94712.38
2023-05-14T18:50:59.792Z,94706.66
2023-05-14T18:53:27.551Z,94716.06
2023-05-14T18:55:55.803Z,94705.97
2023-05-14T18:58:23.142Z,94706.75
2023-05-14T19:00:50.935Z,94704.97
2023-05-14T19:03:20.297Z,94692.38
2023-05-14T19:05:48.269Z,94678.44
2023-05-14T19:08:15.832Z,94672.56
2023-05-14T19:10:43.529Z,94657.00
2023-05-14T19:13:11.790Z,94644.09
2023-05-14T19:15:39.635Z,94643.09
2023-05-14T19:18:07.239Z,94643.69
2023-05-14T19:20:34.991Z,94637.88
2023-05-14T19:23:02.373Z,94640.56
2023-05-14T19:25:30.071Z,94627.09
2023-05-14T19:27:57.832Z,94625.00
2023-05-14T19:30:25.870Z,94624.38
2023-05-14T19:32:54.018Z,94629.78
2023-05-14T19:35:21.818Z,94600.41
2023-05-14T19:37:49.288Z,94623.41
2023-05-14T19:40:16.980Z,94618.22
2023-05-14T19:42:44.289Z,94616.41
2023-05-14T19:45:11.927Z,94613.72
2023-05-14T19:47:39.448Z,94598.16
2023-05-14T19:50:08.591Z,94601.25
2023-05-14T19:52:35.971Z,94587.25
2023-05-14T19:55:03.902Z,94572.50
2023-05-14T19:57:31.391Z,94579.69
2023-05-14T19:59:59.000Z,94575.69
2023-05-14T20:02:27.225Z,94571.78
2023-05-14T20:04:56.904Z,94563.63
2023-05-14T20:07:25.263Z,94568.50
2023-05-14T20:09:52.825Z,94564.31
2023-05-14T20:12:20.161Z,94554.59
2023-05-14T20:14:47.810Z,94550.00
2023-05-14T20:17:15.479Z,94540.06
2023-05-14T20:19:43.988Z,94534.22
2023-05-14T20:22:11.508Z,94518.31
2023-05-14T20:24:41.356Z,94524.72
2023-05-14T20:27:08.771Z,94505.34
2023-05-14T20:29:36.322Z,94496.94
2023-05-14T20:32:03.714Z,94507.38
2023-05-14T20:34:31.333Z,94500.41
2023-05-14T20:36:58.720Z,94488.84
2023-05-14T20:39:26.513Z,94487.44
2023-05-14T20:41:53.811Z,94480.44
2023-05-14T20:44:21.435Z,94472.69
2023-05-14T20:46:48.942Z,94446.28
2023-05-14T20:49:16.767Z,94436.13
2023-05-14T20:51:44.032Z,94435.63
2023-05-14T20:54:11.664Z,94439.72
2023-05-14T20:56:39.035Z,94435.94
2023-05-14T20:59:06.632Z,94433.34
2023-05-14T21:09:12.465Z,94446.69
2023-05-14T21:11:40.128Z,94440.34
2023-05-14T21:14:07.298Z,94433.53
2023-05-14T21:16:36.061Z,94438.91
2023-05-14T21:19:03.268Z,94417.34
2023-05-14T21:21:30.848Z,94407.56
2023-05-14T21:23:58.250Z,94423.63
2023-05-14T21:26:26.873Z,94439.00
2023-05-14T21:28:53.990Z,94420.72
2023-05-14T21:31:21.637Z,94427.41
2023-05-14T21:33:48.828Z,94425.69
2023-05-14T21:36:16.330Z,94413.28
2023-05-14T21:38:43.602Z,94409.22
2023-05-14T21:41:11.181Z,94432.66
2023-05-14T21:43:40.810Z,94424.91
2023-05-14T21:46:08.750Z,94421.97
2023-05-14T21:48:36.025Z,94429.03
2023-05-14T21:51:03.780Z,94432.41
2023-05-14T21:53:30.949Z,94405.03
2023-05-14T21:55:58.525Z,94405.88
2023-05-14T21:58:25.693Z,94414.00
2023-05-14T22:00:53.218Z,94408.00
2023-05-14T22:03:20.662Z,94400.88
2023-05-14T22:05:49.315Z,94368.69
2023-05-14T22:08:17.746Z,94364.03
2023-05-14T22:10:48.144Z,94362.63
2023-05-14T22:13:15.475Z,94370.66
2023-05-14T22:15:43.205Z,94383.94
2023-05-14T22:18:10.573Z,94389.00
2023-05-14T22:20:38.414Z,94387.41
2023-05-14T22:23:06.383Z,94400.22
2023-05-14T22:25:33.941Z,94404.31
2023-05-14T22:28:03.423Z,94391.31
2023-05-14T22:30:31.862Z,94390.13
2023-05-14T22:32:59.112Z,94392.63
2023-05-14T22:35:27.003Z,94388.03
2023-05-14T22:37:54.297Z,94392.63
2023-05-14T22:40:21.851Z,94391.06
2023-05-14T22:42:49.083Z,94400.13
2023-05-14T22:45:16.760Z,94403.72
2023-05-14T22:47:43.965Z,94382.34
2023-05-14T22:50:12.608Z,94376.75
2023-05-14T22:52:41.614Z,94381.34
2023-05-14T22:55:09.977Z,94364.63
2023-05-14T22:57:37.307Z,94371.28
2023-05-14T23:00:05.532Z,94368.50
2023-05-14T23:02:33.296Z,94365.53
2023-05-14T23:05:01.641Z,94344.50
2023-05-14T23:07:29.108Z,94366.03
2023-05-14T23:09:56.653Z,94360.44
2023-05-14T23:12:24.880Z,94354.94
2023-05-14T23:14:52.791Z,94354.63
2023-05-14T23:17:19.913Z,94349.84
2023-05-14T23:19:48.159Z,94353.53
2023-05-14T23:22:15.396Z,94344.66
2023-05-14T23:24:43.343Z,94349.34
2023-05-14T23:27:11.846Z,94338.53
2023-05-14T23:29:39.372Z,94330.06
2023-05-14T23:32:07.054Z,94324.09
2023-05-14T23:34:34.930Z,94330.09
2023-05-14T23:37:02.476Z,94316.97
2023-05-14T23:39:30.218Z,94318.84
2023-05-14T23:41:57.336Z,94316.16
2023-05-14T23:44:24.958Z,94323.94
2023-05-14T23:46:52.167Z,94326.59
2023-05-14T23:49:20.195Z,94311.63
2023-05-14T23:51:47.382Z,94309.41
2023-05-14T23:54:14.969Z,94295.56
2023-05-14T23:56:42.192Z,94273.81
2023-05-14T23:59:09.726Z,94293.34
